Terminal Aerodrome Forecast
Issued by NWS

Home | Current Version | Previous Version | Text Only | Print | Product List | Glossary On
Versions: 1 2 3 4 5 6 7 8 9 10 11 12 13 14 15 16 17 18
000
FTUS45 KSLC 061129
TAFOGD
TAF
KOGD 061129Z 0612/0712 17006KT P6SM SCT040 BKN080
     FM061800 20007KT P6SM VCSH SCT020 BKN040
     FM062100 33007KT 2SM -SN BR SCT007 BKN015
     FM070200 32005KT P6SM VCSH SCT020 BKN040
     FM070800 32005KT P6SM SCT040 BKN080=

USA.gov is the U.S. government's official web portal to all federal, state and local government web resources and services.